aviador You're here:

EPLL Decoded Metar

LODZ in POLAND
Report Time2018-06-25 11:30:00
UTC Time2018-06-25 11:57:43
Flight Rules vfr VFR
Wind250° at 13 kt
W.Decomp.*RWY 25: 13.0 kt HW 0.9 kt LCW
W.Rank250° ranks 6
Current wind is above 250° avg. (8.1)
Visibility9999 m
Phenomena:N/A
Clouds:Scattered 032 Hf
Expected CloudBase > 3,200 ft AGL from Temp-Dew spread
CeilingNone
Temp17°C (ISA +3)
Dew Point09°C (59% RH)
AAT12.1°C
QNH1019 hPa
Density Alt935 ft
Elevation604 ft
Report Wrong Elevation
Raw Report
EPLL 251130Z 25013KT 220V280 9999 SCT032 17/09 Q1019=

Extra information for EPLL:More info

Metar Taf Metar & Taf Last 4 Metars F.Rules Stats Wind Profile Meteogram Temp Stats Airport Information Weather charts Add Link Nearby VenuesMetar ALERT Operation Metar Decoded Social comments